Latest Coastal Weather Observations for Maatsuyker Island

IDT60701

Issued at 4:51 pm EST Tuesday 28 April 2015 (issued every 10 minutes, with the page automatically refreshed every 10 minutes)

About coastal observations | Map of coastal stations | Coastal observations for TAS | Marine services | Other Formats
Station Details ID: 094041 Name: MAATSUYKER ISLAND LIGHTHOUSE Lat: -43.66 Lon: 146.27 Height: 146.5 m
Data from the previous 72 hours. | See also: Recent months at Maatsuyker Island
Date/Time
EST
Temp

°C
Wind Pressure Rain
since 9am
mm
Weather Cloud Vis
km
Sea
Height
m
Swell
Dir
 
Speed
knots
Gust
knots
hPa Trend Height
m
Period
s
Dir
28/04:30pm 11.1 WNW 22 26 1026.6 - 0.0 - - - - - - -
28/04:00pm 11.0 WNW 22 25 1026.8 - 0.0 - - - - - - -
28/03:30pm 10.9 WNW 23 29 1026.7 - 0.0 - - - - - - -
28/03:00pm 11.3 WSW 20 27 1026.6 R 0.0 Showers Cloudy 10 1 2.5 12 SW
28/02:30pm 11.0 NW 25 28 1026.4 - 0.0 - - - - - - -
28/02:00pm 11.3 WNW 24 27 1026.5 - 0.0 - - - - - - -
28/01:30pm 11.6 NW 25 28 1026.4 - 0.0 - - - - - - -
28/01:00pm 11.6 WNW 24 28 1026.5 - 0.0 - - - - - - -
28/12:30pm 11.9 WNW 20 23 1026.9 - 0.0 - - - - - - -
28/12:00pm 12.7 WNW 18 23 1027.2 - 0.0 - - - - - - -
28/11:30am 12.2 WNW 18 21 1027.1 - 0.0 - - - - - - -
28/11:00am 11.4 WNW 17 22 1027.2 - 0.0 - - - - - - -
28/10:30am 10.6 WNW 15 18 1027.2 - 0.0 - - - - - - -
28/10:00am 10.9 NW 19 22 1026.9 - 0.0 - - - - - - -
28/09:30am 10.3 NW 19 22 1026.7 - 0.0 - - - - - - -
28/09:00am 9.9 WSW 15 20 1026.7 R 0.6 Showers Mostly cloudy 15 <0.5 2.5 12 SW
28/08:30am 10.3 WNW 16 19 1026.5 - 0.6 - - - - - - -
28/08:00am 10.2 NW 18 22 1026.1 - 0.6 - - - - - - -
28/07:30am 9.9 WNW 18 21 1025.8 - 0.6 - - - - - - -
28/07:00am 9.9 WNW 17 21 1025.7 - 0.6 - - - - - - -
28/06:30am 10.3 WNW 16 21 1025.5 - 0.6 - - - - - - -
28/06:00am 10.3 SW 15 19 1025.2 R 0.6 Fine Partly cloudy 15 <0.5 2.5 12 SW
28/05:30am 10.2 W 17 23 1025.0 - 0.6 - - - - - - -
28/05:00am 9.4 W 16 20 1024.9 - 0.6 - - - - - - -
28/04:30am 9.7 W 17 23 1024.6 - 0.6 - - - - - - -
28/04:00am 9.5 W 19 28 1023.9 - 0.6 - - - - - - -
28/03:30am 10.2 WNW 23 25 1023.6 - 0.6 - - - - - - -
28/03:00am 9.3 WNW 22 27 1024.3 - 0.6 - - - - - - -
28/02:30am 10.4 WNW 23 27 1024.0 - 0.6 - - - - - - -
28/02:00am 9.9 WNW 21 26 1024.2 - 0.6 - - - - - - -
28/01:30am 10.1 WNW 18 22 1023.9 - 0.6 - - - - - - -
28/01:00am 10.1 WNW 18 21 1024.1 - 0.6 - - - - - - -
28/12:30am 10.1 WNW 19 23 1024.2 - 0.4 - - - - - - -
28/12:00am 9.7 WNW 20 24 1024.1 - 0.4 - - - - - - -
 
Date/Time
EST
Temp

°C
Wind Pressure Rain
since 9am
mm
Weather Cloud Vis
km
Sea
Height
m
Swell
Dir
 
Speed
knots
Gust
knots
hPa Trend Height
m
Period
s
Dir
27/11:30pm 9.7 W 17 22 1024.0 - 0.4 - - - - - - -
27/11:23pm 9.8 W 15 23 1024.0 - 0.4 - - - - - - -
27/11:00pm 9.4 WNW 21 24 1023.8 - 0.4 - - - - - - -
27/10:59pm 9.4 WNW 21 24 1023.8 - 0.4 - - - - - - -
27/10:30pm 9.3 W 16 20 1023.9 - 0.4 - - - - - - -
27/10:00pm 9.5 W 15 20 1023.9 - 0.4 - - - - - - -
27/09:30pm 9.5 WNW 16 20 1023.7 - 0.4 - - - - - - -
27/09:00pm 9.2 WNW 15 21 1023.8 - 0.4 - - - - - - -
27/08:30pm 9.1 NW 15 17 1023.1 - 0.4 - - - - - - -
27/08:00pm 9.3 W 16 20 1023.6 - 0.2 - - - - - - -
27/07:30pm 9.4 WNW 14 18 1022.9 - 0.2 - - - - - - -
27/07:00pm 9.7 WNW 14 16 1022.7 - 0.2 - - - - - - -
27/06:30pm 9.6 WNW 17 22 1022.3 - 0.2 - - - - - - -
27/06:00pm 9.8 WNW 17 20 1022.0 - 0.2 - - - - - - -
27/05:30pm 9.6 WNW 17 20 1021.7 - 0.2 - - - - - - -
27/05:00pm 9.6 W 15 19 1021.6 - 0.2 - - - - - - -
27/04:30pm 9.8 WNW 16 21 1021.2 - 0.2 - - - - - - -
27/04:00pm 9.7 WNW 16 19 1021.2 - 0.2 - - - - - - -
27/03:30pm 9.9 WNW 13 15 1020.9 - 0.2 - - - - - - -
27/03:00pm 10.4 WSW 12 19 1021.0 R 0.2 Distant precip. Mostly cloudy 10 <0.5 3.0 13 SW
27/02:30pm 9.4 W 15 21 1020.7 - 0.2 - - - - - - -
27/02:00pm 9.6 W 12 18 1020.5 - 0.2 - - - - - - -
27/01:30pm 9.4 W 14 18 1020.3 - 0.2 - - - - - - -
27/01:00pm 9.3 WNW 11 17 1020.0 - 0.2 - - - - - - -
27/12:30pm 10.8 WNW 14 16 1020.0 - 0.0 - - - - - - -
27/12:00pm 9.6 W 11 16 1020.2 - 0.0 - - - - - - -
27/11:30am 9.6 WSW 12 18 1020.3 - 0.0 - - - - - - -
27/11:00am 9.9 WNW 16 22 1020.0 - 0.0 - - - - - - -
27/10:30am 9.3 W 12 18 1020.0 - 0.0 - - - - - - -
27/10:00am 8.6 W 12 16 1019.7 - 0.0 - - - - - - -
27/09:30am 9.4 WSW 12 16 1019.3 - 0.0 - - - - - - -
27/09:00am 9.1 WSW 13 21 1019.1 R 3.2 Drizzle Mostly cloudy 15 1 4.0 13 SW
27/08:30am 9.3 WSW 15 20 1018.8 - 3.2 - - - - - - -
27/08:00am 9.6 SW 14 21 1018.4 - 3.2 - - - - - - -
27/07:30am 9.5 W 14 20 1017.9 - 3.2 - - - - - - -
27/07:00am 9.6 W 13 20 1017.5 - 3.2 - - - - - - -
27/06:30am 9.3 W 15 20 1017.3 - 3.2 - - - - - - -
27/06:00am 8.6 SSW 18 25 1017.2 R 3.2 Distant precip. Mostly cloudy 10 1 3.5 13 SW
27/05:51am 9.1 W 16 22 1017.1 - 3.2 - - - - - - -
27/05:30am 8.5 WSW 22 27 1017.1 - 3.2 - - - - - - -
27/05:19am 9.0 WSW 17 27 1016.9 - 3.2 - - - - - - -
27/05:00am 8.7 W 14 19 1016.7 - 3.2 - - - - - - -
27/04:30am 9.0 W 16 22 1016.4 - 3.2 - - - - - - -
27/04:00am 8.7 WNW 19 25 1016.0 - 3.2 - - - - - - -
27/03:30am 8.9 W 18 23 1015.9 - 3.2 - - - - - - -
27/03:00am 9.1 W 18 21 1015.9 - 3.2 - - - - - - -
27/02:30am 8.6 W 19 24 1015.9 - 3.2 - - - - - - -
27/02:02am 8.5 W 17 27 1016.0 - 3.2 - - - - - - -
27/02:00am 8.3 W 16 21 1015.9 - 3.2 - - - - - - -
27/01:30am 8.0 W 21 27 1016.0 - 3.2 - - - - - - -
27/01:00am 8.4 WNW 21 27 1015.9 - 2.8 - - - - - - -
27/12:30am 8.1 WNW 17 24 1015.9 - 2.8 - - - - - - -
27/12:12am 8.9 W 19 30 1015.9 - 2.8 - - - - - - -
27/12:00am 8.5 W 15 21 1015.9 - 2.8 - - - - - - -
 
Date/Time
EST
Temp

°C
Wind Pressure Rain
since 9am
mm
Weather Cloud Vis
km
Sea
Height
m
Swell
Dir
 
Speed
knots
Gust
knots
hPa Trend Height
m
Period
s
Dir
26/11:59pm 8.5 W 16 22 1015.8 - 2.8 - - - - - - -
26/11:44pm 8.5 WSW 20 23 1015.9 - 2.8 - - - - - - -
26/11:30pm 9.1 W 18 25 1015.6 - 2.8 - - - - - - -
26/11:00pm 9.2 W 17 26 1015.7 - 2.8 - - - - - - -
26/10:53pm 9.2 W 16 26 1015.6 - 2.8 - - - - - - -
26/10:30pm 8.9 WSW 18 25 1015.7 - 2.8 - - - - - - -
26/10:00pm 8.8 W 17 21 1015.7 - 2.8 - - - - - - -
26/09:41pm 8.9 W 17 27 1015.4 - 2.6 - - - - - - -
26/09:30pm 8.6 W 15 21 1015.6 - 2.6 - - - - - - -
26/09:00pm 8.4 W 15 21 1015.5 - 2.6 - - - - - - -
26/08:39pm 9.1 WSW 20 27 1015.3 - 2.6 - - - - - - -
26/08:30pm 8.8 W 18 23 1015.1 - 2.6 - - - - - - -
26/08:24pm 9.1 W 20 23 1015.0 - 2.6 - - - - - - -
26/08:00pm 8.7 WSW 18 24 1014.9 - 2.6 - - - - - - -
26/07:30pm 8.6 W 17 24 1014.8 - 2.6 - - - - - - -
26/07:16pm 8.7 W 17 22 1014.8 - 2.6 - - - - - - -
26/07:00pm 8.9 WNW 25 30 1014.6 - 2.6 - - - - - - -
26/06:57pm 8.8 WNW 23 28 1014.3 - 2.6 - - - - - - -
26/06:30pm 9.2 W 14 20 1014.2 - 2.6 - - - - - - -
26/06:02pm 9.2 W 17 27 1013.9 - 2.6 - - - - - - -
26/06:00pm 9.2 W 17 24 1013.8 - 2.6 - - - - - - -
26/05:30pm 8.5 W 17 25 1013.5 - 2.6 - - - - - - -
26/05:00pm 9.3 W 19 25 1013.2 - 2.6 - - - - - - -
26/04:30pm 9.4 W 18 25 1012.9 - 2.6 - - - - - - -
26/04:00pm 9.6 WSW 17 24 1012.5 - 2.6 - - - - - - -
26/03:30pm 9.5 WSW 16 23 1012.2 - 2.6 - - - - - - -
26/03:28pm 9.6 WSW 18 28 1012.2 - 2.6 - - - - - - -
26/03:00pm 9.3 SW 20 26 1011.9 R 2.6 Showers Mostly cloudy 15 1 4.0 12 SW
26/02:50pm 9.6 W 17 28 1011.9 - 2.6 - - - - - - -
26/02:30pm 8.9 W 16 23 1011.7 - 2.4 - - - - - - -
26/02:00pm 9.1 W 16 24 1011.7 - 2.4 - - - - - - -
26/01:47pm 9.1 WSW 17 27 1011.6 - 2.2 - - - - - - -
26/01:36pm 9.9 W 19 34 1011.4 - 2.2 - - - - - - -
26/01:30pm 10.2 WNW 29 33 1010.8 - 2.2 - - - - - - -
26/12:00pm 10.1 NW 30 - 1010.8 - - - - - - - - -
26/11:00am 10.2 NNW 26 31 1011.2 - 0.2 - - - - - - -
26/10:30am 9.5 NNW 25 29 1011.4 - 0.2 - - - - - - -
26/10:00am 8.5 NNW 27 33 1011.7 - 0.2 - - - - - - -
26/09:30am 8.4 NW 31 35 1011.4 - 0.0 - - - - - - -
26/09:07am 9.4 NW 27 38 1011.5 - 0.0 - - - - - - -
26/09:00am 9.3 WNW 25 33 1011.8 F 0.2 Drizzle Cloudy 10 1 3.5 14 SW
26/08:30am 9.7 NW 23 28 1012.0 - 0.2 - - - - - - -
26/08:00am 9.3 NW 21 25 1012.4 - 0.2 - - - - - - -
26/07:30am 8.7 NW 23 27 1012.5 - 0.2 - - - - - - -
26/07:00am 8.6 NW 23 27 1012.5 - 0.2 - - - - - - -
26/06:30am 8.6 NW 25 29 1012.2 - 0.2 - - - - - - -
26/06:00am 8.6 NW 23 30 1012.2 F 0.2 Fine Cloudy 15 1 3.5 14 SW
26/05:30am 8.9 WNW 27 32 1011.9 - 0.2 - - - - - - -
26/05:00am 9.0 NW 24 28 1012.2 - 0.2 - - - - - - -
26/04:30am 9.3 NW 22 27 1012.3 - 0.0 - - - - - - -
26/04:00am 8.8 WNW 22 27 1012.4 - 0.0 - - - - - - -
26/03:30am 9.1 WNW 20 25 1012.5 - 0.0 - - - - - - -
26/03:23am 9.2 WNW 20 25 1012.4 - 0.0 - - - - - - -
26/03:00am 8.6 NNW 13 17 1012.6 - 0.0 - - - - - - -
26/02:30am 8.7 NNW 14 18 1012.8 - 0.0 - - - - - - -
26/02:00am 8.8 WNW 12 16 1013.2 - 0.0 - - - - - - -
26/01:30am 8.5 WNW 10 15 1013.4 - 0.0 - - - - - - -
26/01:00am 8.2 WNW 9 13 1013.4 - 0.0 - - - - - - -
26/12:30am 8.2 WNW 10 13 1013.5 - 0.0 - - - - - - -
26/12:00am 8.1 N 7 9 1013.5 - 0.0 - - - - - - -
 
Date/Time
EST
Temp

°C
Wind Pressure Rain
since 9am
mm
Weather Cloud Vis
km
Sea
Height
m
Swell
Dir
 
Speed
knots
Gust
knots
hPa Trend Height
m
Period
s
Dir
25/11:30pm 8.0 N 6 7 1013.6 - 0.0 - - - - - - -
25/11:00pm 8.5 WNW 3 5 1013.8 - 0.0 - - - - - - -
25/10:30pm 8.5 W 4 6 1013.9 - 0.0 - - - - - - -
25/10:00pm 8.5 S 4 8 1014.0 - 0.0 - - - - - - -
25/09:30pm 8.2 ENE 1 4 1014.0 - 0.0 - - - - - - -
25/09:00pm 8.4 SE 3 8 1014.0 - 0.0 - - - - - - -
25/08:30pm 8.4 N 4 6 1013.9 - 0.0 - - - - - - -
25/08:00pm 8.5 SSW 4 9 1013.9 - 0.0 - - - - - - -
25/07:30pm 8.4 S 11 13 1013.7 - 0.0 - - - - - - -
25/07:00pm 8.3 SE 9 14 1013.5 - 0.0 - - - - - - -
25/06:30pm 8.1 SE 9 14 1013.3 - 0.0 - - - - - - -
25/06:00pm 8.1 SE 11 16 1013.0 - 0.0 - - - - - - -
25/05:56pm 8.2 ESE 8 17 1012.9 - 0.0 - - - - - - -
25/05:30pm 8.6 S 21 24 1012.3 - 0.0 - - - - - - -
25/05:00pm 8.9 S 13 16 1012.3 - 0.0 - - - - - - -

Other Formats:

Comma delimited format used in spreadsheet applications
http://www.bom.gov.au/fwo/IDT60701/IDT60701.94962.axf

JavaScript Object Notation format (JSON) in row-major order
http://www.bom.gov.au/fwo/IDT60701/IDT60701.94962.json